Arlington, Georgia
Current Conditions -  °F | °C
As of 5:35 PM on Friday 28 Nov 2014 (Local Time) from KBIJ Reporting Station
Clear Clear  
Wind Chill: 50°   Ceiling: Unl
Heat Index: 50°   Visibility: 10mi
Dew Point: 32°   Wind: 0mph
Humidity: 50%   Direction: NA
Pressure: 30.32"   Gusts: NA
Location:  31.44°N, 84.72°W
Report Text: KBIJ 282235Z AUTO 00000KT 10SM CLR 10/00 A3032 RMK AO2
Loading
Personal Weather Stations






























Interactive Weather Map New forecast layout! Learn more

10-Day Weather Forecast

Advertisements
Track Severe Weather on mobile